createdAt,value
2023-02-25T00:00:06.745Z,2.17
2023-02-25T00:03:29.775Z,1.80
2023-02-25T00:06:29.793Z,2.10
2023-02-25T00:09:55.761Z,1.70
2023-02-25T00:13:08.897Z,1.40
2023-02-25T00:16:23.162Z,0.87
2023-02-25T00:19:23.754Z,1.75
2023-02-25T00:22:47.723Z,1.70
2023-02-25T00:26:00.754Z,1.77
2023-02-25T00:29:15.761Z,1.70
2023-02-25T00:32:15.994Z,1.73
2023-02-25T00:35:45.803Z,2.57
2023-02-25T00:38:58.829Z,1.75
2023-02-25T00:42:24.823Z,2.00
2023-02-25T00:45:36.783Z,1.50
2023-02-25T00:49:01.916Z,1.50
2023-02-25T00:52:01.878Z,2.25
2023-02-25T00:55:13.845Z,0.90
2023-02-25T00:58:39.910Z,2.15
2023-02-25T01:02:03.904Z,1.80
2023-02-25T01:05:18.916Z,1.67
2023-02-25T01:08:43.902Z,2.10
2023-02-25T01:11:55.933Z,2.70
2023-02-25T01:15:21.969Z,2.25
2023-02-25T01:18:21.980Z,2.15
2023-02-25T01:21:45.933Z,1.70
2023-02-25T01:24:57.970Z,2.40
2023-02-25T01:28:14.984Z,2.33
2023-02-25T01:31:28.125Z,1.77
2023-02-25T01:34:53.002Z,2.50
2023-02-25T01:37:52.981Z,2.95
2023-02-25T01:41:22.054Z,2.23
2023-02-25T01:44:35.059Z,1.70
2023-02-25T01:48:01.042Z,1.70
2023-02-25T01:51:13.048Z,1.37
2023-02-25T01:54:37.065Z,1.70
2023-02-25T01:58:01.019Z,1.70
2023-02-25T02:01:28.420Z,2.10
2023-02-25T02:04:54.143Z,1.90
2023-02-25T02:08:07.075Z,1.10
2023-02-25T02:11:31.150Z,2.15
2023-02-25T02:14:55.127Z,2.05
2023-02-25T02:18:10.118Z,1.83
2023-02-25T02:21:38.085Z,2.27
2023-02-25T02:25:09.187Z,1.60
2023-02-25T02:28:36.200Z,1.50
2023-02-25T02:31:51.294Z,1.57
2023-02-25T02:35:18.270Z,1.90
2023-02-25T02:38:31.126Z,1.50
2023-02-25T02:41:55.181Z,1.63
2023-02-25T02:45:07.252Z,1.80
2023-02-25T02:48:33.243Z,1.80
2023-02-25T02:51:45.208Z,2.10
2023-02-25T02:55:09.335Z,1.65
2023-02-25T02:58:33.262Z,1.17
2023-02-25T03:01:57.248Z,2.25
2023-02-25T03:05:11.296Z,1.70
2023-02-25T03:08:36.321Z,1.57
2023-02-25T03:12:03.300Z,2.10
2023-02-25T03:15:31.294Z,2.23
2023-02-25T03:18:55.334Z,2.05
2023-02-25T03:22:25.361Z,2.43
2023-02-25T03:25:49.359Z,1.90
2023-02-25T03:29:16.368Z,2.47
2023-02-25T03:32:43.350Z,2.50
2023-02-25T03:36:07.427Z,1.73
2023-02-25T03:39:21.360Z,1.50
2023-02-25T03:42:45.381Z,1.30
2023-02-25T03:45:57.448Z,1.80
2023-02-25T03:49:24.445Z,1.35
2023-02-25T03:52:36.431Z,2.27
2023-02-25T03:55:51.390Z,2.10
2023-02-25T03:59:16.436Z,2.30
2023-02-25T04:02:40.500Z,1.47
2023-02-25T04:06:04.479Z,1.70
2023-02-25T04:09:17.425Z,1.50
2023-02-25T04:12:29.527Z,1.55
2023-02-25T04:15:43.564Z,2.20
2023-02-25T04:18:56.478Z,2.17
2023-02-25T04:22:08.504Z,2.05
2023-02-25T04:25:33.481Z,2.27
2023-02-25T04:28:33.572Z,1.40
2023-02-25T04:31:59.604Z,1.70
2023-02-25T04:34:59.613Z,2.17
2023-02-25T04:38:12.595Z,1.90
2023-02-25T04:41:12.611Z,1.70
2023-02-25T04:44:27.610Z,1.80
2023-02-25T04:47:41.582Z,1.55
2023-02-25T04:50:53.596Z,1.23
2023-02-25T04:53:56.569Z,1.70
2023-02-25T04:57:08.658Z,1.53
2023-02-25T05:00:08.636Z,1.40
2023-02-25T05:03:34.678Z,2.23
2023-02-25T05:06:49.660Z,1.73
2023-02-25T05:10:01.690Z,1.70
2023-02-25T05:13:01.696Z,1.75
2023-02-25T05:16:29.732Z,1.75
2023-02-25T05:19:43.686Z,2.40
2023-02-25T05:22:59.718Z,1.45
2023-02-25T05:25:59.744Z,1.30
2023-02-25T05:29:12.751Z,1.30
2023-02-25T05:32:12.911Z,1.63
2023-02-25T05:35:39.991Z,1.53
2023-02-25T05:38:40.720Z,1.77
2023-02-25T05:41:55.730Z,1.40
2023-02-25T05:44:55.850Z,1.17
2023-02-25T05:48:07.782Z,0.93
2023-02-25T05:51:25.779Z,1.05
2023-02-25T05:54:37.775Z,1.10
2023-02-25T05:57:37.765Z,1.00
2023-02-25T06:01:02.752Z,1.00
2023-02-25T06:04:14.882Z,1.10
2023-02-25T06:07:28.838Z,1.00
2023-02-25T06:10:40.884Z,0.53
2023-02-25T06:13:40.838Z,1.20
2023-02-25T06:17:07.855Z,0.97
2023-02-25T06:20:07.861Z,0.80
2023-02-25T06:23:33.885Z,0.87
2023-02-25T06:26:45.839Z,0.40
2023-02-25T06:30:11.837Z,0.70
2023-02-25T06:33:11.895Z,0.70
2023-02-25T06:36:35.895Z,0.70
2023-02-25T06:39:49.929Z,0.85
2023-02-25T06:43:13.959Z,0.90
2023-02-25T06:46:29.050Z,0.77
2023-02-25T06:49:53.986Z,0.77
2023-02-25T06:52:56.935Z,0.80
2023-02-25T06:56:24.112Z,0.50
2023-02-25T06:59:36.001Z,0.73
2023-02-25T07:03:00.042Z,0.50
2023-02-25T07:05:59.955Z,0.97
2023-02-25T07:09:12.034Z,1.00
2023-02-25T07:12:25.998Z,0.90
2023-02-25T07:15:38.134Z,0.60
2023-02-25T07:18:41.010Z,0.80
2023-02-25T07:22:05.191Z,0.80
2023-02-25T07:25:08.159Z,0.60
2023-02-25T07:28:34.091Z,0.90
2023-02-25T07:31:49.260Z,0.40
2023-02-25T07:35:01.059Z,0.47
2023-02-25T07:38:13.072Z,0.80
2023-02-25T07:41:37.127Z,0.83
2023-02-25T07:45:04.144Z,0.40
2023-02-25T07:48:16.136Z,0.95
2023-02-25T07:51:31.112Z,0.60
2023-02-25T07:54:43.161Z,0.73
2023-02-25T07:57:43.103Z,0.60
2023-02-25T08:01:09.261Z,0.90
2023-02-25T08:04:37.249Z,0.60
2023-02-25T08:07:37.164Z,0.83
2023-02-25T08:10:52.166Z,0.60
2023-02-25T08:14:04.210Z,0.40
2023-02-25T08:17:30.254Z,0.60
2023-02-25T08:20:42.276Z,0.47
2023-02-25T08:23:54.305Z,0.63
2023-02-25T08:26:54.288Z,0.83
2023-02-25T08:30:06.268Z,0.70
2023-02-25T08:33:20.310Z,0.80
2023-02-25T08:36:45.241Z,0.43
2023-02-25T08:39:45.326Z,1.00
2023-02-25T08:42:57.277Z,0.90
2023-02-25T08:45:57.317Z,0.93
2023-02-25T08:49:23.283Z,0.85
2023-02-25T08:52:35.312Z,0.95
2023-02-25T08:55:48.324Z,0.90
2023-02-25T08:59:00.366Z,0.77
2023-02-25T09:02:12.588Z,1.00
2023-02-25T09:05:25.414Z,1.07
2023-02-25T09:08:38.362Z,1.30
2023-02-25T09:11:50.425Z,1.30
2023-02-25T09:15:03.401Z,0.73
2023-02-25T09:18:03.437Z,1.67
2023-02-25T09:21:29.458Z,2.17
2023-02-25T09:24:33.441Z,1.15
2023-02-25T09:27:45.425Z,1.17
2023-02-25T09:30:45.485Z,1.20
2023-02-25T09:34:09.521Z,1.30
2023-02-25T09:37:23.500Z,2.90
2023-02-25T09:40:48.445Z,1.10
2023-02-25T09:44:00.532Z,1.57
2023-02-25T09:47:25.451Z,1.20
2023-02-25T09:50:37.545Z,0.97
2023-02-25T09:54:06.363Z,1.00
2023-02-25T09:57:16.520Z,1.65
2023-02-25T10:00:41.560Z,1.45
2023-02-25T10:04:06.583Z,1.15
2023-02-25T10:07:18.613Z,1.20
2023-02-25T10:10:45.589Z,1.20
2023-02-25T10:14:00.605Z,1.50
2023-02-25T10:17:26.606Z,1.10
2023-02-25T10:20:41.676Z,1.45
2023-02-25T10:24:07.669Z,1.15
2023-02-25T10:27:20.627Z,1.03
2023-02-25T10:30:44.856Z,0.70
2023-02-25T10:33:56.676Z,1.10
2023-02-25T10:37:20.671Z,1.20
2023-02-25T10:40:33.660Z,1.25
2023-02-25T10:43:59.736Z,1.13
2023-02-25T10:47:11.726Z,1.30
2023-02-25T10:50:45.840Z,1.27
2023-02-25T10:53:39.752Z,0.90
2023-02-25T10:57:03.746Z,1.50
2023-02-25T11:00:18.792Z,0.75
2023-02-25T11:03:42.758Z,1.20
2023-02-25T11:06:54.767Z,0.67
2023-02-25T11:10:34.773Z,1.00
2023-02-25T11:13:50.815Z,1.33
2023-02-25T11:17:17.904Z,1.10
2023-02-25T11:20:21.789Z,1.23
2023-02-25T11:23:46.838Z,0.90
2023-02-25T11:26:58.854Z,1.23
2023-02-25T11:30:24.802Z,1.03
2023-02-25T11:33:40.829Z,0.87
2023-02-25T11:37:06.519Z,1.00
2023-02-25T11:40:17.800Z,1.00
2023-02-25T11:43:41.878Z,0.80
2023-02-25T11:46:53.926Z,0.90
2023-02-25T11:50:28.867Z,0.63
2023-02-25T11:53:40.901Z,0.90
2023-02-25T11:57:04.906Z,0.70
2023-02-25T12:00:16.952Z,0.80
2023-02-25T12:03:43.950Z,1.07
2023-02-25T12:06:58.943Z,1.10
2023-02-25T12:10:42.945Z,1.13
2023-02-25T12:14:10.983Z,0.67
2023-02-25T12:17:39.976Z,1.00
2023-02-25T12:20:56.961Z,1.00
2023-02-25T12:24:42.009Z,1.23
2023-02-25T12:27:57.984Z,0.67
2023-02-25T12:31:31.108Z,0.97
2023-02-25T12:34:48.000Z,0.80
2023-02-25T12:38:25.015Z,1.15
2023-02-25T12:41:47.019Z,1.20
2023-02-25T12:45:17.025Z,0.83
2023-02-25T12:48:38.057Z,0.97
2023-02-25T12:52:07.176Z,1.07
2023-02-25T12:55:26.194Z,0.75
2023-02-25T12:58:53.087Z,1.40
2023-02-25T13:02:13.143Z,0.60
2023-02-25T13:05:43.148Z,0.70
2023-02-25T13:09:07.092Z,0.83
2023-02-25T13:12:37.148Z,1.33
2023-02-25T13:15:53.924Z,0.90
2023-02-25T13:19:17.172Z,0.90
2023-02-25T13:22:30.157Z,1.50
2023-02-25T13:25:56.213Z,0.60
2023-02-25T13:29:15.150Z,0.63
2023-02-25T13:32:43.213Z,1.10
2023-02-25T13:36:00.238Z,1.00
2023-02-25T13:39:27.174Z,0.75
2023-02-25T13:42:57.167Z,0.70
2023-02-25T13:46:31.247Z,0.80
2023-02-25T13:49:50.307Z,0.90
2023-02-25T13:53:21.300Z,0.80
2023-02-25T13:56:45.279Z,0.70
2023-02-25T14:00:15.309Z,1.00
2023-02-25T14:03:57.310Z,0.65
2023-02-25T14:07:14.279Z,0.80
2023-02-25T14:10:45.382Z,0.50
2023-02-25T14:14:03.340Z,1.63
2023-02-25T14:17:34.365Z,1.60
2023-02-25T14:20:48.314Z,1.70
2023-02-25T14:24:13.402Z,0.80
2023-02-25T14:27:27.386Z,1.73
2023-02-25T14:30:52.476Z,1.30
2023-02-25T14:34:07.355Z,2.30
2023-02-25T14:37:44.363Z,1.53
2023-02-25T14:41:09.434Z,1.80
2023-02-25T14:44:36.498Z,1.30
2023-02-25T14:47:49.383Z,1.00
2023-02-25T14:51:16.458Z,1.30
2023-02-25T14:54:34.439Z,1.00
2023-02-25T14:58:07.517Z,1.20
2023-02-25T15:01:34.554Z,1.40
2023-02-25T15:05:00.457Z,1.17
2023-02-25T15:08:18.471Z,0.85
2023-02-25T15:11:50.574Z,1.13
2023-02-25T15:15:07.547Z,1.00
2023-02-25T15:18:46.571Z,1.05
2023-02-25T15:22:03.615Z,0.93
2023-02-25T15:25:34.571Z,0.80
2023-02-25T15:28:59.585Z,1.03
2023-02-25T15:32:36.591Z,1.10
2023-02-25T15:35:48.646Z,1.17
2023-02-25T15:39:14.557Z,0.80
2023-02-25T15:42:27.589Z,0.93
2023-02-25T15:46:01.639Z,1.30
2023-02-25T15:49:26.590Z,1.17
2023-02-25T15:52:57.651Z,0.97
2023-02-25T15:56:14.602Z,0.90
2023-02-25T15:59:41.665Z,0.97
2023-02-25T16:02:58.506Z,1.43
2023-02-25T16:06:24.674Z,0.80
2023-02-25T16:09:36.697Z,1.10
2023-02-25T16:13:02.741Z,1.50
2023-02-25T16:16:17.748Z,1.05
2023-02-25T16:19:41.665Z,1.20
2023-02-25T16:22:53.684Z,1.10
2023-02-25T16:26:18.725Z,0.83
2023-02-25T16:29:34.759Z,1.30
2023-02-25T16:33:03.789Z,1.00
2023-02-25T16:36:15.875Z,1.50
2023-02-25T16:39:39.819Z,1.45
2023-02-25T16:42:56.820Z,1.07
2023-02-25T16:46:22.746Z,1.20
2023-02-25T16:49:34.846Z,1.10
2023-02-25T16:52:58.891Z,0.80
2023-02-25T16:56:10.851Z,1.50
2023-02-25T16:59:39.809Z,1.13
2023-02-25T17:02:53.793Z,1.60
2023-02-25T17:06:23.270Z,1.43
2023-02-25T17:09:45.923Z,1.20
2023-02-25T17:13:10.903Z,1.10
2023-02-25T17:16:23.453Z,1.20
2023-02-25T17:19:48.854Z,1.25
2023-02-25T17:23:00.896Z,1.10
2023-02-25T17:26:27.986Z,0.90
2023-02-25T17:29:39.968Z,0.93
2023-02-25T17:32:51.971Z,1.27
2023-02-25T17:36:04.962Z,1.13
2023-02-25T17:39:29.982Z,1.00
2023-02-25T17:42:55.035Z,1.13
2023-02-25T17:46:22.316Z,0.90
2023-02-25T17:49:40.017Z,1.13
2023-02-25T17:53:05.062Z,1.27
2023-02-25T17:56:17.031Z,1.13
2023-02-25T17:59:54.205Z,0.80
2023-02-25T18:03:11.029Z,0.90
2023-02-25T18:06:50.225Z,0.87
2023-02-25T18:10:07.068Z,0.90
2023-02-25T18:13:36.149Z,0.90
2023-02-25T18:16:58.127Z,1.20
2023-02-25T18:20:22.126Z,0.87
2023-02-25T18:23:37.169Z,1.00
2023-02-25T18:27:03.096Z,0.93
2023-02-25T18:30:15.163Z,1.10
2023-02-25T18:33:28.129Z,0.73
2023-02-25T18:36:41.174Z,0.70
2023-02-25T18:40:05.136Z,0.57
2023-02-25T18:43:19.136Z,1.25
2023-02-25T18:46:31.176Z,0.75
2023-02-25T18:49:31.177Z,0.90
2023-02-25T18:52:43.236Z,0.90
2023-02-25T18:55:55.173Z,0.97
2023-02-25T18:59:21.156Z,0.80
2023-02-25T19:02:47.290Z,0.63
2023-02-25T19:06:02.227Z,0.80
2023-02-25T19:09:02.239Z,1.00
2023-02-25T19:12:15.260Z,1.23
2023-02-25T19:15:29.241Z,1.33
2023-02-25T19:18:54.248Z,0.80
2023-02-25T19:21:54.292Z,1.10
2023-02-25T19:25:07.338Z,0.90
2023-02-25T19:28:22.351Z,1.00
2023-02-25T19:31:51.469Z,1.27
2023-02-25T19:34:51.325Z,1.00
2023-02-25T19:38:03.378Z,0.90
2023-02-25T19:41:03.288Z,1.25
2023-02-25T19:44:15.472Z,0.57
2023-02-25T19:47:32.368Z,1.00
2023-02-25T19:50:44.377Z,1.00
2023-02-25T19:53:59.343Z,0.80
2023-02-25T19:57:11.355Z,0.77
2023-02-25T20:00:11.412Z,1.00
2023-02-25T20:03:37.464Z,0.93
2023-02-25T20:06:37.414Z,1.00
2023-02-25T20:09:50.465Z,0.80
2023-02-25T20:12:50.426Z,0.77
2023-02-25T20:16:02.561Z,0.50
2023-02-25T20:19:19.439Z,1.10
2023-02-25T20:22:31.486Z,0.90
2023-02-25T20:25:43.449Z,0.67
2023-02-25T20:29:07.537Z,1.27
2023-02-25T20:32:20.551Z,1.13
2023-02-25T20:35:46.551Z,1.00
2023-02-25T20:38:58.579Z,0.55
2023-02-25T20:42:22.584Z,0.50
2023-02-25T20:45:35.554Z,0.57
2023-02-25T20:48:50.584Z,0.55
2023-02-25T20:52:07.557Z,0.80
2023-02-25T20:55:23.559Z,0.73
2023-02-25T20:58:38.591Z,0.70
2023-02-25T21:01:50.628Z,1.00
2023-02-25T21:05:02.589Z,0.70
2023-02-25T21:08:28.663Z,0.65
2023-02-25T21:11:28.669Z,1.00
2023-02-25T21:14:41.595Z,0.80
2023-02-25T21:17:41.661Z,0.65
2023-02-25T21:20:53.730Z,0.70
2023-02-25T21:24:07.640Z,1.15
2023-02-25T21:27:19.712Z,0.27
2023-02-25T21:30:20.664Z,0.50
2023-02-25T21:33:32.667Z,1.03
2023-02-25T21:36:32.724Z,0.70
2023-02-25T21:39:58.660Z,1.10
2023-02-25T21:42:58.681Z,0.70
2023-02-25T21:46:24.175Z,0.90
2023-02-25T21:49:23.761Z,0.65
2023-02-25T21:52:48.738Z,0.65
2023-02-25T21:56:02.725Z,0.70
2023-02-25T21:59:29.772Z,0.60
2023-02-25T22:02:31.986Z,0.63
2023-02-25T22:05:41.835Z,0.60
2023-02-25T22:08:41.871Z,0.60
2023-02-25T22:12:07.825Z,0.70
2023-02-25T22:15:07.848Z,0.63
2023-02-25T22:18:19.856Z,0.73
2023-02-25T22:21:31.937Z,0.63
2023-02-25T22:24:55.827Z,0.70
2023-02-25T22:28:09.816Z,0.70
2023-02-25T22:31:33.924Z,0.50
2023-02-25T22:34:33.865Z,0.57
2023-02-25T22:37:46.892Z,0.70
2023-02-25T22:40:46.940Z,0.70
2023-02-25T22:44:12.942Z,0.70
2023-02-25T22:47:13.018Z,0.60
2023-02-25T22:50:28.932Z,0.90
2023-02-25T22:53:40.933Z,1.10
2023-02-25T22:57:05.927Z,1.15
2023-02-25T23:00:19.926Z,1.00
2023-02-25T23:03:31.990Z,0.60
2023-02-25T23:06:47.315Z,0.80
2023-02-25T23:09:59.010Z,1.00
2023-02-25T23:12:59.043Z,1.30
2023-02-25T23:16:25.352Z,0.70
2023-02-25T23:19:37.051Z,0.80
2023-02-25T23:22:49.004Z,1.10
2023-02-25T23:26:01.055Z,1.23
2023-02-25T23:29:25.039Z,1.20
2023-02-25T23:32:39.082Z,0.77
2023-02-25T23:36:05.121Z,0.93
2023-02-25T23:39:17.099Z,1.25
2023-02-25T23:42:29.128Z,1.13
2023-02-25T23:45:43.878Z,1.13
2023-02-25T23:49:11.147Z,0.90
2023-02-25T23:52:16.952Z,0.85
2023-02-25T23:55:29.079Z,0.80
2023-02-25T23:58:29.106Z,1.10
